sensor_id;sensor_type;location;lat;lon;timestamp;P1;durP1;ratioP1;P2;durP2;ratioP2
73266;SDS011;61495;53.400;7.608;2022-09-13T00:01:18;11.43;;;7.43;;
73266;SDS011;61495;53.400;7.608;2022-09-13T00:03:44;16.50;;;8.55;;
73266;SDS011;61495;53.400;7.608;2022-09-13T00:06:13;14.05;;;7.35;;
73266;SDS011;61495;53.400;7.608;2022-09-13T00:08:41;12.07;;;8.45;;
73266;SDS011;61495;53.400;7.608;2022-09-13T00:11:14;12.02;;;8.13;;
73266;SDS011;61495;53.400;7.608;2022-09-13T00:13:41;12.65;;;8.00;;
73266;SDS011;61495;53.400;7.608;2022-09-13T00:16:12;12.70;;;7.72;;
73266;SDS011;61495;53.400;7.608;2022-09-13T00:18:40;12.80;;;7.88;;
73266;SDS011;61495;53.400;7.608;2022-09-13T00:21:09;13.85;;;9.27;;
73266;SDS011;61495;53.400;7.608;2022-09-13T00:23:38;12.75;;;8.52;;
73266;SDS011;61495;53.400;7.608;2022-09-13T00:26:05;13.80;;;8.30;;
73266;SDS011;61495;53.400;7.608;2022-09-13T00:28:32;14.90;;;8.13;;
73266;SDS011;61495;53.400;7.608;2022-09-13T00:30:59;14.93;;;9.02;;
73266;SDS011;61495;53.400;7.608;2022-09-13T00:33:25;13.27;;;7.30;;
73266;SDS011;61495;53.400;7.608;2022-09-13T00:35:51;13.80;;;8.60;;
73266;SDS011;61495;53.400;7.608;2022-09-13T00:38:16;15.82;;;9.50;;
73266;SDS011;61495;53.400;7.608;2022-09-13T00:40:41;16.45;;;8.93;;
73266;SDS011;61495;53.400;7.608;2022-09-13T00:43:17;15.75;;;8.85;;
73266;SDS011;61495;53.400;7.608;2022-09-13T00:48:14;14.60;;;8.10;;
73266;SDS011;61495;53.400;7.608;2022-09-13T00:50:44;13.75;;;8.35;;
73266;SDS011;61495;53.400;7.608;2022-09-13T00:53:17;14.18;;;8.63;;
73266;SDS011;61495;53.400;7.608;2022-09-13T00:55:50;14.30;;;8.65;;
73266;SDS011;61495;53.400;7.608;2022-09-13T00:58:26;14.52;;;7.78;;
73266;SDS011;61495;53.400;7.608;2022-09-13T01:00:58;11.63;;;7.80;;
73266;SDS011;61495;53.400;7.608;2022-09-13T01:03:26;12.35;;;8.07;;
73266;SDS011;61495;53.400;7.608;2022-09-13T01:06:01;11.43;;;7.50;;
73266;SDS011;61495;53.400;7.608;2022-09-13T01:08:31;13.70;;;7.38;;
73266;SDS011;61495;53.400;7.608;2022-09-13T01:10:59;12.25;;;7.78;;
73266;SDS011;61495;53.400;7.608;2022-09-13T01:13:32;13.90;;;8.48;;
73266;SDS011;61495;53.400;7.608;2022-09-13T01:15:59;15.75;;;8.63;;
73266;SDS011;61495;53.400;7.608;2022-09-13T01:18:25;16.77;;;9.07;;
73266;SDS011;61495;53.400;7.608;2022-09-13T01:29:46;20.83;;;10.93;;
73266;SDS011;61495;53.400;7.608;2022-09-13T01:46:21;17.13;;;10.30;;
73266;SDS011;61495;53.400;7.608;2022-09-13T01:51:45;16.23;;;10.40;;
73266;SDS011;61495;53.400;7.608;2022-09-13T01:54:38;18.88;;;10.57;;
73266;SDS011;61495;53.400;7.608;2022-09-13T01:57:13;16.40;;;10.00;;
73266;SDS011;61495;53.400;7.608;2022-09-13T01:59:57;18.42;;;10.63;;
73266;SDS011;61495;53.400;7.608;2022-09-13T02:02:33;19.00;;;10.00;;
73266;SDS011;61495;53.400;7.608;2022-09-13T02:05:05;19.10;;;10.93;;
73266;SDS011;61495;53.400;7.608;2022-09-13T02:07:37;18.15;;;10.25;;
73266;SDS011;61495;53.400;7.608;2022-09-13T02:13:14;19.05;;;10.43;;
73266;SDS011;61495;53.400;7.608;2022-09-13T02:15:46;19.15;;;11.52;;
73266;SDS011;61495;53.400;7.608;2022-09-13T02:21:06;20.15;;;11.15;;
73266;SDS011;61495;53.400;7.608;2022-09-13T02:23:43;20.42;;;11.30;;
73266;SDS011;61495;53.400;7.608;2022-09-13T02:26:14;19.05;;;11.45;;
73266;SDS011;61495;53.400;7.608;2022-09-13T02:28:42;23.15;;;12.32;;
73266;SDS011;61495;53.400;7.608;2022-09-13T02:31:12;22.92;;;12.77;;
73266;SDS011;61495;53.400;7.608;2022-09-13T02:34:26;21.48;;;12.85;;
73266;SDS011;61495;53.400;7.608;2022-09-13T02:36:37;23.08;;;13.18;;
73266;SDS011;61495;53.400;7.608;2022-09-13T02:39:06;18.38;;;11.25;;
73266;SDS011;61495;53.400;7.608;2022-09-13T02:41:55;22.00;;;11.40;;
73266;SDS011;61495;53.400;7.608;2022-09-13T02:44:42;23.58;;;12.73;;
73266;SDS011;61495;53.400;7.608;2022-09-13T02:49:55;21.70;;;12.25;;
73266;SDS011;61495;53.400;7.608;2022-09-13T02:55:03;19.58;;;11.57;;
73266;SDS011;61495;53.400;7.608;2022-09-13T02:57:37;22.83;;;12.50;;
73266;SDS011;61495;53.400;7.608;2022-09-13T03:00:06;21.20;;;11.45;;
73266;SDS011;61495;53.400;7.608;2022-09-13T03:02:32;21.17;;;11.82;;
73266;SDS011;61495;53.400;7.608;2022-09-13T03:04:59;20.50;;;10.63;;
73266;SDS011;61495;53.400;7.608;2022-09-13T03:07:26;17.55;;;9.95;;
73266;SDS011;61495;53.400;7.608;2022-09-13T03:09:56;21.65;;;11.60;;
73266;SDS011;61495;53.400;7.608;2022-09-13T03:26:24;15.68;;;8.85;;
73266;SDS011;61495;53.400;7.608;2022-09-13T03:29:12;15.20;;;8.50;;
73266;SDS011;61495;53.400;7.608;2022-09-13T03:39:58;10.95;;;5.35;;
73266;SDS011;61495;53.400;7.608;2022-09-13T03:42:40;8.63;;;4.65;;
73266;SDS011;61495;53.400;7.608;2022-09-13T03:45:12;8.30;;;4.20;;
73266;SDS011;61495;53.400;7.608;2022-09-13T03:47:41;7.38;;;3.42;;
73266;SDS011;61495;53.400;7.608;2022-09-13T03:50:15;6.05;;;3.10;;
73266;SDS011;61495;53.400;7.608;2022-09-13T03:52:46;5.60;;;3.28;;
73266;SDS011;61495;53.400;7.608;2022-09-13T03:55:17;5.38;;;2.90;;
73266;SDS011;61495;53.400;7.608;2022-09-13T03:57:44;5.47;;;2.45;;
73266;SDS011;61495;53.400;7.608;2022-09-13T04:00:11;4.80;;;2.72;;
73266;SDS011;61495;53.400;7.608;2022-09-13T04:05:09;5.88;;;3.00;;
73266;SDS011;61495;53.400;7.608;2022-09-13T04:07:35;5.68;;;2.65;;
73266;SDS011;61495;53.400;7.608;2022-09-13T04:10:00;5.55;;;3.33;;
73266;SDS011;61495;53.400;7.608;2022-09-13T04:12:29;6.60;;;3.50;;
73266;SDS011;61495;53.400;7.608;2022-09-13T04:14:55;5.97;;;2.80;;
73266;SDS011;61495;53.400;7.608;2022-09-13T04:17:20;5.90;;;2.47;;
73266;SDS011;61495;53.400;7.608;2022-09-13T04:19:46;4.53;;;2.00;;
73266;SDS011;61495;53.400;7.608;2022-09-13T04:22:12;5.85;;;2.20;;
73266;SDS011;61495;53.400;7.608;2022-09-13T04:24:39;4.65;;;2.05;;
73266;SDS011;61495;53.400;7.608;2022-09-13T04:27:07;3.83;;;1.50;;
73266;SDS011;61495;53.400;7.608;2022-09-13T04:29:32;4.00;;;2.20;;
73266;SDS011;61495;53.400;7.608;2022-09-13T04:31:58;4.90;;;2.00;;
73266;SDS011;61495;53.400;7.608;2022-09-13T04:34:23;3.90;;;1.35;;
73266;SDS011;61495;53.400;7.608;2022-09-13T04:36:49;3.35;;;1.58;;
73266;SDS011;61495;53.400;7.608;2022-09-13T04:39:16;4.82;;;1.73;;
73266;SDS011;61495;53.400;7.608;2022-09-13T04:41:42;3.90;;;1.58;;
73266;SDS011;61495;53.400;7.608;2022-09-13T04:44:15;3.80;;;1.80;;
73266;SDS011;61495;53.400;7.608;2022-09-13T04:46:42;3.63;;;1.60;;
73266;SDS011;61495;53.400;7.608;2022-09-13T04:49:12;3.58;;;1.42;;
73266;SDS011;61495;53.400;7.608;2022-09-13T04:51:38;4.15;;;1.33;;
73266;SDS011;61495;53.400;7.608;2022-09-13T04:54:04;4.90;;;1.20;;
73266;SDS011;61495;53.400;7.608;2022-09-13T04:56:29;3.60;;;1.42;;
73266;SDS011;61495;53.400;7.608;2022-09-13T04:58:55;4.25;;;1.70;;
73266;SDS011;61495;53.400;7.608;2022-09-13T05:01:21;3.75;;;1.45;;
73266;SDS011;61495;53.400;7.608;2022-09-13T05:03:47;4.82;;;1.67;;
73266;SDS011;61495;53.400;7.608;2022-09-13T05:06:15;4.25;;;1.58;;
73266;SDS011;61495;53.400;7.608;2022-09-13T05:08:48;4.47;;;1.50;;
73266;SDS011;61495;53.400;7.608;2022-09-13T05:11:16;3.40;;;1.23;;
73266;SDS011;61495;53.400;7.608;2022-09-13T05:13:42;4.35;;;1.17;;
73266;SDS011;61495;53.400;7.608;2022-09-13T05:16:08;3.17;;;1.20;;
73266;SDS011;61495;53.400;7.608;2022-09-13T05:18:34;2.28;;;0.80;;
73266;SDS011;61495;53.400;7.608;2022-09-13T05:21:01;3.75;;;1.10;;
73266;SDS011;61495;53.400;7.608;2022-09-13T05:23:28;2.33;;;0.80;;
73266;SDS011;61495;53.400;7.608;2022-09-13T05:25:55;4.78;;;1.02;;
73266;SDS011;61495;53.400;7.608;2022-09-13T05:28:23;2.70;;;1.00;;
73266;SDS011;61495;53.400;7.608;2022-09-13T05:31:09;4.07;;;1.13;;
73266;SDS011;61495;53.400;7.608;2022-09-13T05:33:38;4.00;;;1.00;;
73266;SDS011;61495;53.400;7.608;2022-09-13T05:36:04;2.38;;;0.77;;
73266;SDS011;61495;53.400;7.608;2022-09-13T05:38:30;3.15;;;0.90;;
73266;SDS011;61495;53.400;7.608;2022-09-13T05:40:56;3.38;;;1.05;;
73266;SDS011;61495;53.400;7.608;2022-09-13T05:43:25;4.32;;;1.27;;
73266;SDS011;61495;53.400;7.608;2022-09-13T05:48:41;1.73;;;0.90;;
73266;SDS011;61495;53.400;7.608;2022-09-13T05:51:08;5.25;;;1.10;;
73266;SDS011;61495;53.400;7.608;2022-09-13T05:53:39;3.90;;;1.08;;
73266;SDS011;61495;53.400;7.608;2022-09-13T05:56:11;3.78;;;1.20;;
73266;SDS011;61495;53.400;7.608;2022-09-13T05:58:39;5.05;;;1.00;;
73266;SDS011;61495;53.400;7.608;2022-09-13T06:01:07;3.45;;;1.10;;
73266;SDS011;61495;53.400;7.608;2022-09-13T06:03:33;4.38;;;1.13;;
73266;SDS011;61495;53.400;7.608;2022-09-13T06:06:02;5.50;;;0.90;;
73266;SDS011;61495;53.400;7.608;2022-09-13T06:08:29;4.30;;;0.88;;
73266;SDS011;61495;53.400;7.608;2022-09-13T06:11:03;3.15;;;0.77;;
73266;SDS011;61495;53.400;7.608;2022-09-13T06:13:31;3.58;;;1.10;;
73266;SDS011;61495;53.400;7.608;2022-09-13T06:15:58;4.72;;;0.80;;
73266;SDS011;61495;53.400;7.608;2022-09-13T06:18:25;2.88;;;0.70;;
73266;SDS011;61495;53.400;7.608;2022-09-13T06:20:58;3.10;;;0.85;;
73266;SDS011;61495;53.400;7.608;2022-09-13T06:23:28;5.40;;;0.80;;
73266;SDS011;61495;53.400;7.608;2022-09-13T06:28:36;5.47;;;0.90;;
73266;SDS011;61495;53.400;7.608;2022-09-13T06:31:06;5.03;;;0.90;;
73266;SDS011;61495;53.400;7.608;2022-09-13T06:33:33;4.88;;;1.15;;
73266;SDS011;61495;53.400;7.608;2022-09-13T06:36:03;3.67;;;0.80;;
73266;SDS011;61495;53.400;7.608;2022-09-13T06:38:33;7.30;;;1.08;;
73266;SDS011;61495;53.400;7.608;2022-09-13T06:41:03;7.65;;;1.65;;
73266;SDS011;61495;53.400;7.608;2022-09-13T06:43:31;4.07;;;1.15;;
73266;SDS011;61495;53.400;7.608;2022-09-13T06:46:08;5.35;;;0.80;;
73266;SDS011;61495;53.400;7.608;2022-09-13T06:48:39;3.13;;;1.00;;
73266;SDS011;61495;53.400;7.608;2022-09-13T06:51:07;7.57;;;1.10;;
73266;SDS011;61495;53.400;7.608;2022-09-13T06:53:35;4.43;;;1.10;;
73266;SDS011;61495;53.400;7.608;2022-09-13T06:56:03;4.97;;;1.45;;
73266;SDS011;61495;53.400;7.608;2022-09-13T06:58:30;3.25;;;0.88;;
73266;SDS011;61495;53.400;7.608;2022-09-13T07:03:42;5.15;;;0.90;;
73266;SDS011;61495;53.400;7.608;2022-09-13T07:06:13;4.05;;;0.75;;
73266;SDS011;61495;53.400;7.608;2022-09-13T07:08:43;2.83;;;0.80;;
73266;SDS011;61495;53.400;7.608;2022-09-13T07:11:10;3.50;;;0.90;;
73266;SDS011;61495;53.400;7.608;2022-09-13T07:13:40;5.90;;;1.52;;
73266;SDS011;61495;53.400;7.608;2022-09-13T07:16:06;6.45;;;1.15;;
73266;SDS011;61495;53.400;7.608;2022-09-13T07:18:34;4.47;;;0.90;;
73266;SDS011;61495;53.400;7.608;2022-09-13T07:21:01;6.40;;;1.38;;
73266;SDS011;61495;53.400;7.608;2022-09-13T07:23:31;7.10;;;1.38;;
73266;SDS011;61495;53.400;7.608;2022-09-13T07:25:58;3.08;;;1.00;;
73266;SDS011;61495;53.400;7.608;2022-09-13T07:31:08;5.53;;;1.10;;
73266;SDS011;61495;53.400;7.608;2022-09-13T07:33:35;2.47;;;0.70;;
73266;SDS011;61495;53.400;7.608;2022-09-13T07:36:03;5.90;;;1.20;;
73266;SDS011;61495;53.400;7.608;2022-09-13T07:38:34;5.47;;;0.80;;
73266;SDS011;61495;53.400;7.608;2022-09-13T07:41:00;4.25;;;1.40;;
73266;SDS011;61495;53.400;7.608;2022-09-13T07:43:30;6.45;;;1.30;;
73266;SDS011;61495;53.400;7.608;2022-09-13T07:45:57;6.25;;;1.15;;
73266;SDS011;61495;53.400;7.608;2022-09-13T07:48:28;6.25;;;1.05;;
73266;SDS011;61495;53.400;7.608;2022-09-13T07:50:59;5.22;;;1.00;;
73266;SDS011;61495;53.400;7.608;2022-09-13T07:53:27;2.33;;;1.10;;
73266;SDS011;61495;53.400;7.608;2022-09-13T07:55:53;4.85;;;1.20;;
73266;SDS011;61495;53.400;7.608;2022-09-13T07:58:24;4.50;;;1.10;;
73266;SDS011;61495;53.400;7.608;2022-09-13T08:00:50;6.47;;;1.63;;
73266;SDS011;61495;53.400;7.608;2022-09-13T08:03:15;4.80;;;0.80;;
73266;SDS011;61495;53.400;7.608;2022-09-13T08:05:41;7.10;;;0.95;;
73266;SDS011;61495;53.400;7.608;2022-09-13T08:08:06;5.30;;;1.10;;
73266;SDS011;61495;53.400;7.608;2022-09-13T08:10:32;6.13;;;1.02;;
73266;SDS011;61495;53.400;7.608;2022-09-13T08:12:58;4.50;;;1.05;;
73266;SDS011;61495;53.400;7.608;2022-09-13T08:15:24;4.50;;;0.93;;
73266;SDS011;61495;53.400;7.608;2022-09-13T08:17:49;4.47;;;0.85;;
73266;SDS011;61495;53.400;7.608;2022-09-13T08:20:15;5.53;;;0.98;;
73266;SDS011;61495;53.400;7.608;2022-09-13T08:22:40;4.70;;;0.85;;
73266;SDS011;61495;53.400;7.608;2022-09-13T08:25:06;4.07;;;1.00;;
73266;SDS011;61495;53.400;7.608;2022-09-13T08:27:31;4.82;;;0.80;;
73266;SDS011;61495;53.400;7.608;2022-09-13T08:29:56;5.57;;;0.98;;
73266;SDS011;61495;53.400;7.608;2022-09-13T08:32:22;4.03;;;0.70;;
73266;SDS011;61495;53.400;7.608;2022-09-13T08:34:47;4.13;;;1.00;;
73266;SDS011;61495;53.400;7.608;2022-09-13T08:37:13;7.30;;;0.77;;
73266;SDS011;61495;53.400;7.608;2022-09-13T08:39:38;4.00;;;0.70;;
73266;SDS011;61495;53.400;7.608;2022-09-13T08:42:48;6.43;;;1.00;;
73266;SDS011;61495;53.400;7.608;2022-09-13T08:45:10;4.30;;;0.88;;
73266;SDS011;61495;53.400;7.608;2022-09-13T08:50:26;4.47;;;0.80;;
73266;SDS011;61495;53.400;7.608;2022-09-13T08:55:39;4.60;;;0.70;;
73266;SDS011;61495;53.400;7.608;2022-09-13T09:02:08;6.28;;;1.02;;
73266;SDS011;61495;53.400;7.608;2022-09-13T09:06:31;5.27;;;0.77;;
73266;SDS011;61495;53.400;7.608;2022-09-13T09:15:00;4.03;;;0.95;;
73266;SDS011;61495;53.400;7.608;2022-09-13T09:17:41;3.53;;;1.10;;
73266;SDS011;61495;53.400;7.608;2022-09-13T09:20:20;8.27;;;1.10;;
73266;SDS011;61495;53.400;7.608;2022-09-13T09:22:50;4.30;;;0.90;;
73266;SDS011;61495;53.400;7.608;2022-09-13T09:25:17;6.95;;;0.98;;
73266;SDS011;61495;53.400;7.608;2022-09-13T09:27:44;5.78;;;1.25;;
73266;SDS011;61495;53.400;7.608;2022-09-13T09:30:13;5.15;;;0.90;;
73266;SDS011;61495;53.400;7.608;2022-09-13T09:35:33;3.75;;;0.90;;
73266;SDS011;61495;53.400;7.608;2022-09-13T09:40:42;4.72;;;0.80;;
73266;SDS011;61495;53.400;7.608;2022-09-13T09:43:16;6.63;;;1.13;;
73266;SDS011;61495;53.400;7.608;2022-09-13T09:45:50;6.93;;;1.48;;
73266;SDS011;61495;53.400;7.608;2022-09-13T09:48:19;4.93;;;0.93;;
73266;SDS011;61495;53.400;7.608;2022-09-13T09:50:49;4.88;;;0.98;;
73266;SDS011;61495;53.400;7.608;2022-09-13T09:56:00;4.25;;;0.93;;
73266;SDS011;61495;53.400;7.608;2022-09-13T09:58:51;4.90;;;1.00;;
73266;SDS011;61495;53.400;7.608;2022-09-13T10:01:33;3.95;;;0.77;;
73266;SDS011;61495;53.400;7.608;2022-09-13T10:06:42;5.43;;;0.82;;
73266;SDS011;61495;53.400;7.608;2022-09-13T10:11:37;6.33;;;1.50;;
73266;SDS011;61495;53.400;7.608;2022-09-13T10:14:08;4.03;;;0.60;;
73266;SDS011;61495;53.400;7.608;2022-09-13T10:19:36;2.83;;;0.80;;
73266;SDS011;61495;53.400;7.608;2022-09-13T10:22:03;3.90;;;0.60;;
73266;SDS011;61495;53.400;7.608;2022-09-13T10:24:33;4.93;;;1.15;;
73266;SDS011;61495;53.400;7.608;2022-09-13T10:26:58;3.40;;;0.90;;
73266;SDS011;61495;53.400;7.608;2022-09-13T10:29:24;4.30;;;1.20;;
73266;SDS011;61495;53.400;7.608;2022-09-13T10:31:52;7.00;;;1.02;;
73266;SDS011;61495;53.400;7.608;2022-09-13T10:34:40;4.65;;;0.88;;
73266;SDS011;61495;53.400;7.608;2022-09-13T10:37:19;3.05;;;0.70;;
73266;SDS011;61495;53.400;7.608;2022-09-13T10:39:50;4.30;;;0.90;;
73266;SDS011;61495;53.400;7.608;2022-09-13T10:42:25;3.45;;;0.52;;
73266;SDS011;61495;53.400;7.608;2022-09-13T10:44:53;3.33;;;0.85;;
73266;SDS011;61495;53.400;7.608;2022-09-13T10:47:22;3.83;;;0.60;;
73266;SDS011;61495;53.400;7.608;2022-09-13T10:49:52;9.07;;;0.93;;
73266;SDS011;61495;53.400;7.608;2022-09-13T10:52:27;4.53;;;1.23;;
73266;SDS011;61495;53.400;7.608;2022-09-13T10:57:54;3.10;;;0.65;;
73266;SDS011;61495;53.400;7.608;2022-09-13T11:06:04;5.93;;;1.02;;
73266;SDS011;61495;53.400;7.608;2022-09-13T11:11:36;3.45;;;0.80;;
73266;SDS011;61495;53.400;7.608;2022-09-13T11:19:42;3.33;;;0.77;;
73266;SDS011;61495;53.400;7.608;2022-09-13T11:28:15;7.53;;;0.90;;
73266;SDS011;61495;53.400;7.608;2022-09-13T11:31:03;5.85;;;1.25;;
73266;SDS011;61495;53.400;7.608;2022-09-13T11:36:56;3.80;;;0.70;;
73266;SDS011;61495;53.400;7.608;2022-09-13T11:39:38;2.95;;;0.63;;
73266;SDS011;61495;53.400;7.608;2022-09-13T11:45:08;6.88;;;1.00;;
73266;SDS011;61495;53.400;7.608;2022-09-13T11:47:47;5.25;;;0.80;;
73266;SDS011;61495;53.400;7.608;2022-09-13T11:53:37;4.03;;;0.57;;
73266;SDS011;61495;53.400;7.608;2022-09-13T11:56:25;4.47;;;1.00;;
73266;SDS011;61495;53.400;7.608;2022-09-13T12:01:42;5.07;;;0.60;;
73266;SDS011;61495;53.400;7.608;2022-09-13T12:04:18;4.75;;;0.90;;
73266;SDS011;61495;53.400;7.608;2022-09-13T12:06:51;5.03;;;1.00;;
73266;SDS011;61495;53.400;7.608;2022-09-13T12:09:25;3.53;;;0.80;;
73266;SDS011;61495;53.400;7.608;2022-09-13T12:12:05;5.45;;;0.80;;
73266;SDS011;61495;53.400;7.608;2022-09-13T12:17:39;5.75;;;1.00;;
73266;SDS011;61495;53.400;7.608;2022-09-13T12:20:15;7.40;;;1.08;;
73266;SDS011;61495;53.400;7.608;2022-09-13T12:22:43;4.88;;;0.95;;
73266;SDS011;61495;53.400;7.608;2022-09-13T12:25:20;6.47;;;1.08;;
73266;SDS011;61495;53.400;7.608;2022-09-13T12:28:02;4.78;;;1.00;;
73266;SDS011;61495;53.400;7.608;2022-09-13T12:30:41;5.85;;;1.33;;
73266;SDS011;61495;53.400;7.608;2022-09-13T12:33:15;4.53;;;1.25;;
73266;SDS011;61495;53.400;7.608;2022-09-13T12:35:50;3.40;;;0.93;;
73266;SDS011;61495;53.400;7.608;2022-09-13T12:47:31;5.47;;;1.00;;
73266;SDS011;61495;53.400;7.608;2022-09-13T12:50:10;4.75;;;0.88;;
73266;SDS011;61495;53.400;7.608;2022-09-13T13:01:20;9.10;;;1.25;;
73266;SDS011;61495;53.400;7.608;2022-09-13T13:06:33;3.10;;;0.80;;
73266;SDS011;61495;53.400;7.608;2022-09-13T13:09:18;4.57;;;1.27;;
73266;SDS011;61495;53.400;7.608;2022-09-13T13:11:55;5.55;;;1.00;;
73266;SDS011;61495;53.400;7.608;2022-09-13T13:23:26;3.83;;;0.85;;
73266;SDS011;61495;53.400;7.608;2022-09-13T13:26:03;4.88;;;1.00;;
73266;SDS011;61495;53.400;7.608;2022-09-13T13:36:43;4.72;;;0.90;;
73266;SDS011;61495;53.400;7.608;2022-09-13T13:41:51;3.15;;;0.70;;
73266;SDS011;61495;53.400;7.608;2022-09-13T13:46:44;6.50;;;1.10;;
73266;SDS011;61495;53.400;7.608;2022-09-13T13:57:25;5.72;;;1.73;;
73266;SDS011;61495;53.400;7.608;2022-09-13T14:00:05;4.95;;;0.82;;
73266;SDS011;61495;53.400;7.608;2022-09-13T14:11:36;4.22;;;1.17;;
73266;SDS011;61495;53.400;7.608;2022-09-13T14:13:48;3.95;;;0.93;;
73266;SDS011;61495;53.400;7.608;2022-09-13T14:22:03;6.15;;;1.42;;
73266;SDS011;61495;53.400;7.608;2022-09-13T14:24:28;5.40;;;0.88;;
73266;SDS011;61495;53.400;7.608;2022-09-13T14:26:57;5.88;;;0.80;;
73266;SDS011;61495;53.400;7.608;2022-09-13T14:29:23;5.28;;;0.90;;
73266;SDS011;61495;53.400;7.608;2022-09-13T14:31:53;2.60;;;0.68;;
73266;SDS011;61495;53.400;7.608;2022-09-13T14:34:20;2.80;;;0.65;;
73266;SDS011;61495;53.400;7.608;2022-09-13T14:36:56;4.97;;;1.10;;
73266;SDS011;61495;53.400;7.608;2022-09-13T14:39:23;4.68;;;1.00;;
73266;SDS011;61495;53.400;7.608;2022-09-13T14:41:57;4.15;;;1.40;;
73266;SDS011;61495;53.400;7.608;2022-09-13T14:44:35;5.28;;;1.05;;
73266;SDS011;61495;53.400;7.608;2022-09-13T14:47:02;4.68;;;0.80;;
73266;SDS011;61495;53.400;7.608;2022-09-13T14:49:34;5.03;;;0.73;;
73266;SDS011;61495;53.400;7.608;2022-09-13T14:52:14;4.38;;;0.82;;
73266;SDS011;61495;53.400;7.608;2022-09-13T14:54:46;5.10;;;0.90;;
73266;SDS011;61495;53.400;7.608;2022-09-13T14:57:23;4.90;;;0.85;;
73266;SDS011;61495;53.400;7.608;2022-09-13T14:59:53;4.72;;;0.88;;
73266;SDS011;61495;53.400;7.608;2022-09-13T15:02:23;1.92;;;0.70;;
73266;SDS011;61495;53.400;7.608;2022-09-13T15:04:54;7.18;;;0.90;;
73266;SDS011;61495;53.400;7.608;2022-09-13T15:07:34;5.82;;;1.08;;
73266;SDS011;61495;53.400;7.608;2022-09-13T15:15:40;2.72;;;0.80;;
73266;SDS011;61495;53.400;7.608;2022-09-13T15:26:19;2.47;;;0.55;;
73266;SDS011;61495;53.400;7.608;2022-09-13T15:31:19;4.22;;;0.80;;
73266;SDS011;61495;53.400;7.608;2022-09-13T15:39:40;3.22;;;0.70;;
73266;SDS011;61495;53.400;7.608;2022-09-13T15:42:14;2.03;;;0.50;;
73266;SDS011;61495;53.400;7.608;2022-09-13T15:44:41;3.63;;;0.75;;
73266;SDS011;61495;53.400;7.608;2022-09-13T15:47:12;3.35;;;0.80;;
73266;SDS011;61495;53.400;7.608;2022-09-13T15:49:45;4.22;;;0.68;;
73266;SDS011;61495;53.400;7.608;2022-09-13T15:52:14;4.60;;;0.75;;
73266;SDS011;61495;53.400;7.608;2022-09-13T15:54:41;3.70;;;0.80;;
73266;SDS011;61495;53.400;7.608;2022-09-13T15:57:09;3.97;;;0.93;;
73266;SDS011;61495;53.400;7.608;2022-09-13T15:59:40;4.40;;;0.85;;
73266;SDS011;61495;53.400;7.608;2022-09-13T16:02:22;4.45;;;0.80;;
73266;SDS011;61495;53.400;7.608;2022-09-13T16:04:54;3.28;;;0.60;;
73266;SDS011;61495;53.400;7.608;2022-09-13T16:07:20;4.47;;;0.93;;
73266;SDS011;61495;53.400;7.608;2022-09-13T16:09:47;3.95;;;0.70;;
73266;SDS011;61495;53.400;7.608;2022-09-13T16:12:14;4.30;;;0.88;;
73266;SDS011;61495;53.400;7.608;2022-09-13T16:14:48;4.80;;;0.90;;
73266;SDS011;61495;53.400;7.608;2022-09-13T16:17:15;3.58;;;0.88;;
73266;SDS011;61495;53.400;7.608;2022-09-13T16:19:47;4.68;;;0.95;;
73266;SDS011;61495;53.400;7.608;2022-09-13T16:22:13;3.17;;;0.55;;
73266;SDS011;61495;53.400;7.608;2022-09-13T16:24:38;3.65;;;0.90;;
73266;SDS011;61495;53.400;7.608;2022-09-13T16:27:04;6.72;;;1.10;;
73266;SDS011;61495;53.400;7.608;2022-09-13T16:29:30;2.85;;;0.65;;
73266;SDS011;61495;53.400;7.608;2022-09-13T16:31:56;5.13;;;0.70;;
73266;SDS011;61495;53.400;7.608;2022-09-13T16:34:24;3.20;;;0.70;;
73266;SDS011;61495;53.400;7.608;2022-09-13T16:36:50;2.15;;;0.85;;
73266;SDS011;61495;53.400;7.608;2022-09-13T16:39:16;4.55;;;0.80;;
73266;SDS011;61495;53.400;7.608;2022-09-13T16:41:43;2.80;;;0.60;;
73266;SDS011;61495;53.400;7.608;2022-09-13T16:44:09;3.28;;;0.80;;
73266;SDS011;61495;53.400;7.608;2022-09-13T16:46:35;3.83;;;0.60;;
73266;SDS011;61495;53.400;7.608;2022-09-13T16:49:01;2.67;;;0.80;;
73266;SDS011;61495;53.400;7.608;2022-09-13T16:51:28;3.45;;;0.70;;
73266;SDS011;61495;53.400;7.608;2022-09-13T16:53:55;4.25;;;0.73;;
73266;SDS011;61495;53.400;7.608;2022-09-13T16:56:24;2.15;;;0.70;;
73266;SDS011;61495;53.400;7.608;2022-09-13T16:58:51;4.10;;;0.65;;
73266;SDS011;61495;53.400;7.608;2022-09-13T17:01:24;2.00;;;0.50;;
73266;SDS011;61495;53.400;7.608;2022-09-13T17:03:53;3.25;;;0.90;;
73266;SDS011;61495;53.400;7.608;2022-09-13T17:06:20;4.47;;;0.50;;
73266;SDS011;61495;53.400;7.608;2022-09-13T17:09:05;5.10;;;0.80;;
73266;SDS011;61495;53.400;7.608;2022-09-13T17:11:33;3.35;;;0.70;;
73266;SDS011;61495;53.400;7.608;2022-09-13T17:14:01;5.70;;;0.95;;
73266;SDS011;61495;53.400;7.608;2022-09-13T17:16:30;4.45;;;0.80;;
73266;SDS011;61495;53.400;7.608;2022-09-13T17:18:59;4.45;;;0.80;;
73266;SDS011;61495;53.400;7.608;2022-09-13T17:21:31;5.20;;;0.80;;
73266;SDS011;61495;53.400;7.608;2022-09-13T17:23:58;4.28;;;0.82;;
73266;SDS011;61495;53.400;7.608;2022-09-13T17:26:23;5.28;;;1.13;;
73266;SDS011;61495;53.400;7.608;2022-09-13T17:28:49;3.78;;;0.60;;
73266;SDS011;61495;53.400;7.608;2022-09-13T17:31:16;4.55;;;0.80;;
73266;SDS011;61495;53.400;7.608;2022-09-13T17:33:43;4.57;;;0.73;;
73266;SDS011;61495;53.400;7.608;2022-09-13T17:36:09;3.03;;;0.70;;
73266;SDS011;61495;53.400;7.608;2022-09-13T17:38:37;3.05;;;0.70;;
73266;SDS011;61495;53.400;7.608;2022-09-13T17:41:04;2.28;;;0.50;;
73266;SDS011;61495;53.400;7.608;2022-09-13T17:43:34;2.83;;;0.60;;
73266;SDS011;61495;53.400;7.608;2022-09-13T17:46:05;2.80;;;0.60;;
73266;SDS011;61495;53.400;7.608;2022-09-13T17:48:33;4.00;;;1.00;;
73266;SDS011;61495;53.400;7.608;2022-09-13T17:51:02;3.08;;;0.55;;
73266;SDS011;61495;53.400;7.608;2022-09-13T17:53:29;2.17;;;0.47;;
73266;SDS011;61495;53.400;7.608;2022-09-13T17:55:57;2.88;;;0.63;;
73266;SDS011;61495;53.400;7.608;2022-09-13T17:58:23;3.55;;;0.90;;
73266;SDS011;61495;53.400;7.608;2022-09-13T18:00:58;2.42;;;0.52;;
73266;SDS011;61495;53.400;7.608;2022-09-13T18:03:28;4.18;;;0.77;;
73266;SDS011;61495;53.400;7.608;2022-09-13T18:05:55;2.40;;;0.60;;
73266;SDS011;61495;53.400;7.608;2022-09-13T18:08:22;4.57;;;0.90;;
73266;SDS011;61495;53.400;7.608;2022-09-13T18:10:48;2.83;;;0.50;;
73266;SDS011;61495;53.400;7.608;2022-09-13T18:13:13;3.50;;;0.55;;
73266;SDS011;61495;53.400;7.608;2022-09-13T18:15:39;2.28;;;0.68;;
73266;SDS011;61495;53.400;7.608;2022-09-13T18:18:04;2.20;;;0.95;;
73266;SDS011;61495;53.400;7.608;2022-09-13T18:20:29;1.85;;;0.50;;
73266;SDS011;61495;53.400;7.608;2022-09-13T18:22:55;2.25;;;0.60;;
73266;SDS011;61495;53.400;7.608;2022-09-13T18:25:21;2.67;;;0.63;;
73266;SDS011;61495;53.400;7.608;2022-09-13T18:27:47;2.42;;;0.60;;
73266;SDS011;61495;53.400;7.608;2022-09-13T18:30:13;5.05;;;0.60;;
73266;SDS011;61495;53.400;7.608;2022-09-13T18:32:39;3.00;;;0.50;;
73266;SDS011;61495;53.400;7.608;2022-09-13T18:35:05;3.60;;;0.68;;
73266;SDS011;61495;53.400;7.608;2022-09-13T18:37:30;4.30;;;0.70;;
73266;SDS011;61495;53.400;7.608;2022-09-13T18:39:57;6.00;;;0.90;;
73266;SDS011;61495;53.400;7.608;2022-09-13T18:42:26;5.57;;;1.73;;
73266;SDS011;61495;53.400;7.608;2022-09-13T18:44:52;3.50;;;0.70;;
73266;SDS011;61495;53.400;7.608;2022-09-13T18:47:17;6.05;;;0.70;;
73266;SDS011;61495;53.400;7.608;2022-09-13T18:49:43;5.47;;;0.73;;
73266;SDS011;61495;53.400;7.608;2022-09-13T18:52:08;5.95;;;0.68;;
73266;SDS011;61495;53.400;7.608;2022-09-13T18:54:35;3.65;;;0.60;;
73266;SDS011;61495;53.400;7.608;2022-09-13T18:57:00;2.55;;;0.70;;